createdAt,value
2019-04-23T00:03:38.972Z,9.07
2019-04-23T00:08:52.190Z,9.33
2019-04-23T00:13:51.988Z,9.63
2019-04-23T00:18:53.729Z,9.93
2019-04-23T00:24:03.079Z,10.03
2019-04-23T00:29:10.633Z,9.70
2019-04-23T00:34:01.212Z,9.63
2019-04-23T00:39:08.334Z,10.57
2019-04-23T00:44:15.124Z,10.33
2019-04-23T00:49:21.107Z,10.90
2019-04-23T00:54:24.081Z,10.00
2019-04-23T00:59:31.348Z,10.40
2019-04-23T01:04:27.449Z,10.33
2019-04-23T01:09:39.404Z,11.27
2019-04-23T01:14:38.513Z,10.57
2019-04-23T01:19:52.957Z,10.40
2019-04-23T01:24:44.223Z,10.73
2019-04-23T01:35:17.645Z,10.53
2019-04-23T01:40:23.982Z,11.60
2019-04-23T01:45:24.129Z,11.20
2019-04-23T01:50:34.483Z,12.00
2019-04-23T01:55:44.074Z,11.50
2019-04-23T02:05:42.651Z,12.43
2019-04-23T02:10:51.352Z,12.00
2019-04-23T02:15:47.729Z,11.33
2019-04-23T02:21:04.695Z,11.63
2019-04-23T02:26:03.037Z,11.77
2019-04-23T02:46:12.890Z,12.03
2019-04-23T02:51:35.237Z,11.93
2019-04-23T02:56:37.914Z,12.10
2019-04-23T03:01:57.539Z,12.50
2019-04-23T03:11:52.249Z,13.27
2019-04-23T03:17:00.333Z,13.13
2019-04-23T03:22:07.420Z,12.37
2019-04-23T03:42:24.044Z,11.77
2019-04-23T03:52:36.938Z,12.00
2019-04-23T04:02:48.518Z,11.63
2019-04-23T04:12:46.424Z,12.10
2019-04-23T04:23:07.845Z,11.90
2019-04-23T04:28:12.398Z,11.20
2019-04-23T04:48:35.795Z,11.83
2019-04-23T04:58:47.501Z,12.20
2019-04-23T05:04:02.365Z,11.37
2019-04-23T05:08:55.242Z,11.53
2019-04-23T05:13:54.155Z,11.13
2019-04-23T05:19:15.492Z,11.00
2019-04-23T05:24:06.696Z,11.23
2019-04-23T05:39:24.711Z,10.63
2019-04-23T05:49:22.379Z,10.60
2019-04-23T05:54:26.596Z,10.23
2019-04-23T06:04:32.471Z,10.67
2019-04-23T06:09:30.381Z,10.47
2019-04-23T06:14:47.353Z,10.27
2019-04-23T06:19:47.800Z,9.73
2019-04-23T06:24:46.722Z,10.17
2019-04-23T06:29:52.838Z,9.23
2019-04-23T06:34:55.012Z,9.77
2019-04-23T06:44:59.650Z,9.00
2019-04-23T06:55:08.589Z,8.60
2019-04-23T07:00:17.745Z,8.20
2019-04-23T07:05:23.651Z,8.53
2019-04-23T07:10:28.363Z,8.50
2019-04-23T07:20:28.670Z,8.27
2019-04-23T07:25:34.594Z,8.03
2019-04-23T07:30:38.493Z,7.80
2019-04-23T07:35:45.439Z,7.73
2019-04-23T07:40:46.636Z,7.17
2019-04-23T07:46:25.672Z,7.63
2019-04-23T07:51:19.519Z,7.60
2019-04-23T07:56:21.469Z,7.47
2019-04-23T08:01:32.228Z,7.77
2019-04-23T08:06:34.820Z,6.43
2019-04-23T08:16:40.571Z,7.10
2019-04-23T08:21:45.993Z,7.37
2019-04-23T08:26:55.134Z,7.10
2019-04-23T08:32:02.219Z,6.27
2019-04-23T08:37:05.089Z,6.83
2019-04-23T08:52:21.554Z,6.50
2019-04-23T08:57:22.753Z,6.43
2019-04-23T09:02:37.135Z,6.80
2019-04-23T09:07:27.522Z,5.93
2019-04-23T09:12:36.633Z,6.27
2019-04-23T09:17:40.831Z,5.87
2019-04-23T09:22:40.156Z,6.50
2019-04-23T09:32:52.058Z,6.50
2019-04-23T09:38:28.582Z,6.40
2019-04-23T09:43:55.666Z,6.03
2019-04-23T09:49:15.253Z,6.13
2019-04-23T09:54:03.901Z,6.17
2019-04-23T09:59:09.003Z,6.00
2019-04-23T10:03:57.052Z,6.13
2019-04-23T10:08:52.010Z,6.23
2019-04-23T10:13:52.614Z,6.07
2019-04-23T10:18:55.210Z,6.33
2019-04-23T10:23:57.220Z,5.40
2019-04-23T10:29:05.615Z,6.03
2019-04-23T10:34:08.277Z,5.63
2019-04-23T10:39:17.540Z,5.77
2019-04-23T10:44:33.023Z,6.27
2019-04-23T10:50:05.537Z,5.83
2019-04-23T10:55:12.095Z,5.87
2019-04-23T11:00:16.913Z,6.23
2019-04-23T11:05:28.796Z,5.77
2019-04-23T11:10:23.859Z,6.00
2019-04-23T11:15:47.375Z,5.90
2019-04-23T11:25:45.179Z,6.03
2019-04-23T11:30:51.261Z,6.00
2019-04-23T11:36:22.181Z,5.87
2019-04-23T11:41:05.819Z,7.20
2019-04-23T11:46:22.875Z,6.80
2019-04-23T11:56:22.744Z,6.50
2019-04-23T12:01:47.762Z,6.33
2019-04-23T12:06:50.974Z,6.57
2019-04-23T12:17:17.236Z,6.90
2019-04-23T12:22:16.607Z,6.77
2019-04-23T12:27:27.426Z,6.77
2019-04-23T12:37:41.035Z,7.33
2019-04-23T12:47:58.481Z,6.63
2019-04-23T12:52:51.044Z,7.30
2019-04-23T13:03:18.952Z,7.23
2019-04-23T13:08:11.802Z,6.90
2019-04-23T13:13:21.153Z,7.20
2019-04-23T13:18:17.309Z,7.90
2019-04-23T13:28:23.237Z,7.07
2019-04-23T13:33:34.788Z,7.13
2019-04-23T13:48:31.241Z,7.73
2019-04-23T14:09:16.349Z,7.83
2019-04-23T14:24:15.530Z,8.47
2019-04-23T14:29:13.101Z,7.93
2019-04-23T14:34:19.546Z,8.13
2019-04-23T14:39:25.512Z,8.17
2019-04-23T14:44:53.143Z,7.30
2019-04-23T14:55:35.395Z,8.60
2019-04-23T15:00:01.904Z,9.10
2019-04-23T15:05:06.302Z,8.60
2019-04-23T15:10:13.366Z,8.70
2019-04-23T15:15:14.378Z,8.63
2019-04-23T15:20:15.312Z,8.30
2019-04-23T15:30:14.400Z,8.40
2019-04-23T15:35:43.524Z,8.63
2019-04-23T15:45:42.159Z,9.50
2019-04-23T15:50:48.796Z,10.40
2019-04-23T16:01:17.290Z,8.43
2019-04-23T16:05:50.936Z,9.50
2019-04-23T16:11:33.540Z,9.50
2019-04-23T16:16:30.088Z,9.93
2019-04-23T16:36:48.625Z,10.53
2019-04-23T16:41:54.347Z,9.87
2019-04-23T16:52:01.426Z,10.30
2019-04-23T17:02:14.757Z,11.43
2019-04-23T17:07:06.686Z,10.50
2019-04-23T17:12:16.248Z,10.97
2019-04-23T17:17:13.257Z,12.03
2019-04-23T17:22:26.107Z,11.27
2019-04-23T17:27:33.195Z,12.13
2019-04-23T17:32:45.259Z,11.27
2019-04-23T17:37:57.803Z,12.07
2019-04-23T17:43:14.755Z,12.03
2019-04-23T17:48:24.008Z,11.57
2019-04-23T17:53:21.613Z,13.43
2019-04-23T17:58:23.433Z,12.43
2019-04-23T18:03:26.572Z,12.10
2019-04-23T18:08:29.058Z,12.47
2019-04-23T18:13:40.500Z,12.27
2019-04-23T18:18:48.345Z,12.83
2019-04-23T18:24:00.915Z,12.13
2019-04-23T18:29:08.512Z,12.97
2019-04-23T18:39:14.372Z,11.87
2019-04-23T18:44:23.369Z,12.57
2019-04-23T18:49:28.200Z,11.87
2019-04-23T18:54:28.496Z,11.87
2019-04-23T19:15:21.539Z,12.97
2019-04-23T19:20:35.316Z,11.87
2019-04-23T19:25:22.857Z,11.90
2019-04-23T19:30:37.243Z,11.80
2019-04-23T19:35:57.085Z,12.37
2019-04-23T19:40:37.786Z,11.87
2019-04-23T19:45:50.234Z,11.93
2019-04-23T19:51:00.285Z,11.67
2019-04-23T19:56:03.813Z,11.87
2019-04-23T20:01:10.517Z,10.33
2019-04-23T20:06:00.570Z,8.77
2019-04-23T20:11:03.301Z,8.00
2019-04-23T20:16:10.600Z,7.60
2019-04-23T20:21:03.829Z,7.03
2019-04-23T20:33:03.642Z,7.20
2019-04-23T20:47:13.294Z,5.97
2019-04-23T20:57:41.902Z,5.70
2019-04-23T21:03:05.991Z,6.30
2019-04-23T21:07:54.433Z,6.83
2019-04-23T21:23:04.414Z,5.80
2019-04-23T21:33:12.030Z,5.90
2019-04-23T21:38:27.891Z,4.90
2019-04-23T21:43:57.178Z,4.50
2019-04-23T21:49:01.868Z,5.03
2019-04-23T21:53:51.729Z,5.43
2019-04-23T22:04:08.745Z,4.90
2019-04-23T22:14:14.459Z,4.80
2019-04-23T22:29:18.494Z,4.53
2019-04-23T22:34:22.216Z,4.50
2019-04-23T22:39:26.820Z,4.80
2019-04-23T22:44:30.883Z,4.20
2019-04-23T22:54:49.489Z,4.67
2019-04-23T22:59:55.509Z,4.50
2019-04-23T23:05:00.021Z,4.40
2019-04-23T23:10:00.952Z,4.17
2019-04-23T23:15:01.423Z,3.73
2019-04-23T23:20:20.566Z,4.23
2019-04-23T23:25:23.887Z,3.63
2019-04-23T23:30:22.452Z,4.03
2019-04-23T23:35:22.693Z,3.93
2019-04-23T23:50:35.444Z,4.17
2019-04-23T23:55:46.879Z,4.30
